Terminal Aerodrome Forecast
Issued by NWS Quad Cities IA IL

Home | Current Version | Previous Version | Text Only | Print | Product List | Glossary On
Versions: 1 2 3 4 5 6 7 8 9 10 11 12 13 14 15 16 17 18 19 20
000
FTUS43 KDVN 181500 AAB
TAFMLI
TAF AMD
KMLI 181504Z 1815/1912 18005KT 6SM HZ SCT012 BKN050
     FM181800 20008KT P6SM SCT035 PROB30 1900/1906 5SM -TSRA BR
      BKN020CB
     FM190600 24005KT 6SM BR SCT150=

USA.gov is the U.S. government's official web portal to all federal, state and local government web resources and services.